NCAR-RAP Real-Time Weather Data

Output produced by METARs form (12 May 2021  10:22 UTC)
found at http://weather.rap.ucar.edu/surface/
 
KAUW 120954Z AUTO 00000KT 10SM CLR 01/M03 A3039 RMK AO2 SLP304 T00061033
KAUW 120854Z AUTO 00000KT 10SM CLR 01/M03 A3039 RMK AO2 SLP302 T00111033 53002
KAUW 120754Z AUTO 00000KT 10SM CLR 01/M03 A3038 RMK AO2 SLP299 T00111028
KAUW 120654Z AUTO 00000KT 10SM CLR 03/M03 A3038 RMK AO2 SLP299 T00331028
KAUW 120554Z AUTO 30003KT 10SM CLR 03/M02 A3038 RMK AO2 SLP299 T00331022 10150 20033 401610000 51003
KAUW 120454Z AUTO 00000KT 10SM CLR 04/M03 A3038 RMK AO2 SLP298 T00441033
KAUW 120354Z AUTO 34005KT 10SM CLR 07/M02 A3038 RMK AO2 SLP296 T00671022
KAUW 120254Z AUTO 00000KT 10SM CLR 08/M04 A3037 RMK AO2 SLP295 T00831044 53022
KAUW 120154Z AUTO 04003KT 10SM CLR 11/M06 A3034 RMK AO2 SLP285 T01061056
KAUW 120054Z AUTO 36003KT 10SM CLR 13/M06 A3032 RMK AO2 SLP276 T01331061
KAUW 112354Z AUTO 35004KT 10SM CLR 14/M07 A3030 RMK AO2 SLP272 T01441067 10161 20122 53006
KAUW 112254Z AUTO 32009KT 10SM CLR 14/M07 A3029 RMK AO2 SLP269 T01441067
KAUW 112154Z AUTO 01004KT 10SM CLR 15/M06 A3028 RMK AO2 SLP266 T01501056
KAUW 112054Z AUTO VRB06KT 10SM BKN075 14/M06 A3028 RMK AO2 SLP266 T01441056 56019
KAUW 111954Z AUTO VRB04KT 10SM SCT075 14/M05 A3030 RMK AO2 SLP271 T01441050
KAUW 111854Z AUTO 33011G16KT 10SM CLR 13/M06 A3032 RMK AO2 SLP278 T01331056